Time;durP1;ratioP1;P1;durP2;ratioP2;P2;SDS_P1;SDS_P2;PMS_P1;PMS_P2;Temp;Humidity;BMP_temperature;BMP_pressure;BME280_temperature;BME280_humidity;BME280_pressure;Samples;Min_cycle;Max_cycle;Signal;HPM_P1;HPM_P2
2022/11/13 00:00:13;;;;;;;75.00;38.10;;;;;;;6.63;81.69;100384.05;86319;1287;99543;-74
2022/11/13 00:02:34;;;;;;;77.80;39.20;;;;;;;6.61;81.86;100389.14;86229;1290;22663;-75
2022/11/13 00:04:36;;;;;;;85.40;40.10;;;;;;;6.59;81.59;100390.55;86253;1290;23636;-75
2022/11/13 00:06:38;;;;;;;83.80;40.70;;;;;;;6.60;82.02;100395.77;86147;1290;100339;-75
2022/11/13 00:08:41;;;;;;;81.30;43.40;;;;;;;6.62;81.92;100387.38;86150;1291;22503;-76
2022/11/13 00:10:43;;;;;;;88.00;40.80;;;;;;;6.64;81.88;100383.15;86084;1286;23653;-75
2022/11/13 00:12:44;;;;;;;86.20;40.00;;;;;;;6.65;81.81;100386.83;86162;1290;100173;-76
2022/11/13 00:14:46;;;;;;;72.90;40.60;;;;;;;6.63;81.83;100385.27;86229;1290;22692;-75
2022/11/13 00:16:48;;;;;;;73.50;40.70;;;;;;;6.62;81.75;100385.45;86154;1284;25343;-75
2022/11/13 00:18:50;;;;;;;86.70;40.80;;;;;;;6.61;81.68;100376.73;86145;1289;110893;-75
2022/11/13 00:20:51;;;;;;;83.50;41.60;;;;;;;6.62;81.99;100378.83;86196;1290;22721;-75
2022/11/13 00:22:53;;;;;;;81.30;41.70;;;;;;;6.62;81.91;100373.94;86252;1291;22650;-75
2022/11/13 00:24:55;;;;;;;79.80;41.30;;;;;;;6.59;81.94;100374.30;86210;1287;99424;-75
2022/11/13 00:26:56;;;;;;;87.00;44.40;;;;;;;6.58;81.60;100376.42;86368;1287;22531;-75
2022/11/13 00:29:02;;;;;;;97.80;44.50;;;;;;;6.55;81.87;100378.72;86238;1291;23905;-75
2022/11/13 00:31:06;;;;;;;82.70;42.50;;;;;;;6.53;81.95;100380.14;86106;1290;100094;-75
2022/11/13 00:33:07;;;;;;;85.20;40.00;;;;;;;6.52;81.73;100372.98;86201;1290;22510;-76
2022/11/13 00:35:09;;;;;;;84.40;42.30;;;;;;;6.48;81.84;100374.58;86131;1293;24291;-75
2022/11/13 00:37:10;;;;;;;80.80;43.00;;;;;;;6.47;81.89;100370.77;86119;1290;100302;-76
2022/11/13 00:39:12;;;;;;;79.30;41.90;;;;;;;6.47;81.91;100368.66;86202;1290;26016;-74
2022/11/13 00:41:14;;;;;;;76.00;42.30;;;;;;;6.46;81.81;100368.48;86168;1283;100047;-76
2022/11/13 00:43:16;;;;;;;78.80;42.50;;;;;;;6.45;81.88;100363.96;86154;1289;22568;-75
2022/11/13 00:45:17;;;;;;;85.80;45.60;;;;;;;6.44;82.12;100362.75;86117;1291;22860;-75
2022/11/13 00:47:19;;;;;;;91.60;45.70;;;;;;;6.45;82.19;100366.75;86145;1290;99974;-75
2022/11/13 00:49:20;;;;;;;87.80;44.70;;;;;;;6.46;82.14;100365.00;86253;1287;22615;-75
2022/11/13 00:51:22;;;;;;;86.50;43.40;;;;;;;6.47;82.27;100363.59;86389;1283;25560;-76
2022/11/13 00:53:24;;;;;;;87.40;46.00;;;;;;;6.47;81.86;100361.85;86004;1289;99210;-76
2022/11/13 00:55:26;;;;;;;78.40;44.30;;;;;;;6.45;81.87;100360.83;86172;1291;22680;-76
2022/11/13 00:57:27;;;;;;;79.70;45.10;;;;;;;6.45;81.78;100363.09;86305;1288;22553;-75
2022/11/13 00:59:30;;;;;;;81.10;42.60;;;;;;;6.46;82.05;100361.67;86063;1287;100363;-77
2022/11/13 01:01:32;;;;;;;85.30;44.70;;;;;;;6.47;82.02;100359.05;86222;1287;25164;-75
2022/11/13 01:03:34;;;;;;;93.90;46.20;;;;;;;6.50;81.95;100359.04;86119;1293;22529;-74
2022/11/13 01:05:38;;;;;;;85.50;46.50;;;;;;;6.53;82.21;100356.73;86209;1290;98601;-73
2022/11/13 01:07:39;;;;;;;86.20;46.40;;;;;;;6.56;82.07;100356.54;86392;1291;22497;-76
2022/11/13 01:09:41;;;;;;;86.40;45.30;;;;;;;6.57;82.05;100358.77;86227;1292;22961;-75
2022/11/13 01:11:43;;;;;;;100.60;49.40;;;;;;;6.57;82.03;100357.91;86086;1290;99957;-76
2022/11/13 01:13:47;;;;;;;96.40;48.70;;;;;;;6.57;82.04;100355.46;86070;1290;24261;-76
2022/11/13 01:15:49;;;;;;;90.20;46.60;;;;;;;6.58;82.27;100354.59;86371;1291;23391;-75
2022/11/13 01:17:53;;;;;;;88.90;46.50;;;;;;;6.58;82.34;100351.10;86095;1291;99671;-75
2022/11/13 01:19:55;;;;;;;96.70;47.20;;;;;;;6.51;82.07;100341.39;86152;1291;22665;-76
2022/11/13 01:21:57;;;;;;;97.00;46.30;;;;;;;6.56;82.18;100344.99;86251;1287;22588;-76
2022/11/13 01:24:00;;;;;;;99.20;49.60;;;;;;;6.57;81.91;100347.79;86031;1291;99957;-75
2022/11/13 01:26:07;;;;;;;99.00;48.50;;;;;;;6.56;82.07;100350.77;86026;1287;22723;-74
2022/11/13 01:28:09;;;;;;;97.10;50.10;;;;;;;6.57;82.01;100350.77;86204;1290;22574;-75
2022/11/13 01:30:10;;;;;;;93.10;47.40;;;;;;;6.58;81.92;100352.85;86040;1289;99620;-75
2022/11/13 01:32:12;;;;;;;100.10;49.50;;;;;;;6.57;82.10;100352.68;86213;1290;22817;-75
2022/11/13 01:34:14;;;;;;;90.60;46.50;;;;;;;6.55;82.36;100350.08;86077;1283;22508;-75
2022/11/13 01:36:27;;;;;;;96.90;47.00;;;;;;;6.55;82.18;100346.95;86096;1291;98403;-74
2022/11/13 01:38:29;;;;;;;91.90;48.30;;;;;;;6.54;82.12;100342.75;86092;1291;22601;-75
2022/11/13 01:40:30;;;;;;;89.90;44.70;;;;;;;6.52;82.13;100344.69;86151;1300;22643;-75
2022/11/13 01:42:33;;;;;;;105.20;51.20;;;;;;;6.51;82.11;100344.71;86178;1291;99566;-75
2022/11/13 01:44:53;;;;;;;101.10;48.80;;;;;;;6.50;82.22;100339.13;86436;1289;23990;-76
2022/11/13 01:46:55;;;;;;;97.30;47.20;;;;;;;6.49;82.04;100333.37;87010;1293;22548;-76
2022/11/13 01:49:00;;;;;;;93.80;45.70;;;;;;;6.48;82.14;100334.95;86680;1290;98712;-75
2022/11/13 01:51:10;;;;;;;96.60;49.10;;;;;;;6.47;82.03;100336.36;86138;1293;22475;-74
2022/11/13 01:53:12;;;;;;;86.80;46.70;;;;;;;6.48;82.27;100331.98;86166;1305;100405;-74
2022/11/13 01:55:18;;;;;;;93.10;47.50;;;;;;;6.48;82.13;100332.16;86238;1299;22632;-75
2022/11/13 01:57:20;;;;;;;94.10;47.90;;;;;;;6.48;82.20;100327.79;86484;1290;26477;-74
2022/11/13 01:59:29;;;;;;;87.30;46.90;;;;;;;6.51;82.38;100325.67;86351;1312;98547;-75
2022/11/13 02:01:31;;;;;;;94.40;48.50;;;;;;;6.52;82.12;100324.61;86840;1297;22563;-75
2022/11/13 02:03:36;;;;;;;85.90;45.70;;;;;;;6.49;82.29;100321.84;87595;1313;22652;-77
2022/11/13 02:05:38;;;;;;;90.70;45.90;;;;;;;6.46;82.42;100322.39;87300;1300;99058;-75
2022/11/13 02:07:40;;;;;;;101.90;47.80;;;;;;;6.44;82.29;100322.60;87612;1298;22085;-75
2022/11/13 02:09:49;;;;;;;99.00;48.00;;;;;;;6.42;82.22;100321.21;87464;1312;22594;-75
2022/11/13 02:11:52;;;;;;;99.80;48.60;;;;;;;6.44;82.28;100322.59;87718;1309;99888;-75
2022/11/13 02:13:59;;;;;;;91.50;46.60;;;;;;;6.44;82.17;100321.02;88126;1312;22513;-76
2022/11/13 02:16:01;;;;;;;81.10;42.70;;;;;;;6.42;82.41;100317.54;88148;1297;22533;-75
2022/11/13 02:18:06;;;;;;;104.60;48.40;;;;;;;6.37;82.16;100315.49;88125;1313;98396;-75
2022/11/13 02:20:08;;;;;;;99.20;49.10;;;;;;;6.35;82.33;100312.55;88128;1297;22093;-76
2022/11/13 02:22:25;;;;;;;100.70;48.90;;;;;;;6.33;82.18;100315.02;87397;1315;25359;-75
2022/11/13 02:24:31;;;;;;;94.50;45.70;;;;;;;6.33;82.11;100316.59;87000;1298;98631;-74
2022/11/13 02:26:36;;;;;;;100.00;48.90;;;;;;;6.30;82.26;100315.56;86630;1313;23164;-75
2022/11/13 02:28:38;;;;;;;97.40;49.50;;;;;;;6.27;82.14;100311.56;86557;1313;22709;-76
2022/11/13 02:30:39;;;;;;;111.80;50.10;;;;;;;6.28;82.59;100313.82;86351;1309;98591;-75
2022/11/13 02:32:46;;;;;;;101.00;45.90;;;;;;;6.29;82.28;100315.05;86491;1309;22495;-74
2022/11/13 02:34:48;;;;;;;102.00;46.70;;;;;;;6.26;82.23;100313.85;86670;1314;22474;-74
2022/11/13 02:36:50;;;;;;;98.20;48.70;;;;;;;6.24;82.44;100315.78;86479;1299;98701;-75
2022/11/13 02:38:53;;;;;;;94.90;48.30;;;;;;;6.22;82.37;100315.10;86519;1315;22449;-75
2022/11/13 02:40:54;;;;;;;94.50;47.00;;;;;;;6.20;82.42;100315.83;86544;1313;23205;-75
2022/11/13 02:42:56;;;;;;;97.10;49.10;;;;;;;6.19;82.30;100314.79;86448;1314;99644;-74
2022/11/13 02:44:58;;;;;;;103.40;50.70;;;;;;;6.17;82.31;100315.67;86619;1313;22482;-75
2022/11/13 02:47:00;;;;;;;102.10;47.20;;;;;;;6.16;82.40;100310.98;86572;1313;22838;-74
2022/11/13 02:49:02;;;;;;;107.20;49.20;;;;;;;6.15;82.46;100309.58;86516;1313;99926;-76
2022/11/13 02:51:04;;;;;;;104.20;46.40;;;;;;;6.15;82.56;100305.23;86381;1306;22524;-76
2022/11/13 02:53:06;;;;;;;101.50;47.40;;;;;;;6.14;82.59;100307.66;86430;1312;26584;-75
2022/11/13 02:55:08;;;;;;;86.80;44.10;;;;;;;6.13;82.53;100304.02;86415;1301;99729;-74
2022/11/13 02:57:10;;;;;;;97.90;49.10;;;;;;;6.10;82.46;100306.14;86394;1291;25372;-76
2022/11/13 02:59:12;;;;;;;104.80;50.90;;;;;;;6.09;82.51;100303.36;86447;1312;22567;-75
2022/11/13 03:01:13;;;;;;;108.70;49.80;;;;;;;6.10;82.68;100305.09;86385;1305;22500;-75
2022/11/13 03:03:16;;;;;;;100.50;49.60;;;;;;;6.09;82.66;100308.59;86336;1301;22504;-75
2022/11/13 03:05:17;;;;;;;100.80;48.50;;;;;;;6.08;82.53;100312.09;86487;1313;98965;-75
2022/11/13 03:07:19;;;;;;;109.80;49.20;;;;;;;6.06;82.57;100307.73;86564;1287;22435;-74
2022/11/13 03:09:21;;;;;;;114.60;52.10;;;;;;;6.05;82.66;100310.36;86321;1313;22490;-75
2022/11/13 03:11:23;;;;;;;110.40;51.20;;;;;;;6.06;82.54;100309.31;86449;1290;99855;-75
2022/11/13 03:13:24;;;;;;;102.70;50.40;;;;;;;6.07;82.52;100314.02;86247;1299;22607;-76
2022/11/13 03:15:26;;;;;;;106.20;49.50;;;;;;;6.06;82.76;100312.97;86453;1297;25378;-75
2022/11/13 03:17:30;;;;;;;105.70;51.10;;;;;;;6.04;82.79;100314.39;86184;1290;99990;-75
2022/11/13 03:19:32;;;;;;;111.00;52.40;;;;;;;6.07;82.88;100322.23;86436;1289;24311;-76
2022/11/13 03:21:34;;;;;;;105.90;50.20;;;;;;;6.08;82.83;100320.12;86290;1296;22777;-76
2022/11/13 03:23:36;;;;;;;103.10;51.90;;;;;;;6.08;82.72;100325.00;86304;1290;99680;-75
2022/11/13 03:25:37;;;;;;;108.40;50.70;;;;;;;6.10;82.82;100327.42;86218;1289;25564;-75
2022/11/13 03:27:39;;;;;;;105.40;50.80;;;;;;;6.13;82.70;100327.58;86158;1291;22537;-76
2022/11/13 03:29:41;;;;;;;103.00;50.80;;;;;;;6.16;82.73;100329.64;86330;1290;99285;-75
2022/11/13 03:31:42;;;;;;;101.50;50.20;;;;;;;6.18;82.86;100331.73;86338;1288;22612;-74
2022/11/13 03:33:44;;;;;;;104.60;51.90;;;;;;;6.20;82.64;100333.98;86132;1292;22593;-75
2022/11/13 03:35:47;;;;;;;109.30;48.70;;;;;;;6.22;83.05;100334.84;86171;1290;98659;-76
2022/11/13 03:37:49;;;;;;;106.90;51.80;;;;;;;6.23;82.72;100335.88;86310;1313;23959;-74
2022/11/13 03:39:51;;;;;;;101.50;51.00;;;;;;;6.24;82.79;100332.55;86380;1289;22488;-76
2022/11/13 03:41:53;;;;;;;99.30;50.90;;;;;;;6.25;82.58;100333.23;86014;1285;100009;-75
2022/11/13 03:43:55;;;;;;;108.00;50.20;;;;;;;6.20;82.60;100321.92;86274;1290;22891;-76
2022/11/13 03:45:57;;;;;;;100.70;48.40;;;;;;;6.23;82.61;100329.77;86413;1291;22505;-75
2022/11/13 03:47:58;;;;;;;104.90;50.00;;;;;;;6.22;82.82;100333.77;86360;1283;98853;-75
2022/11/13 03:50:00;;;;;;;109.50;53.10;;;;;;;6.23;82.76;100334.30;86358;1292;24148;-75
2022/11/13 03:52:02;;;;;;;114.90;55.70;;;;;;;6.23;82.69;100331.33;86380;1289;23557;-76
2022/11/13 03:54:04;;;;;;;113.20;54.90;;;;;;;6.24;82.81;100333.77;86125;1299;98587;-76
2022/11/13 03:56:08;;;;;;;109.10;54.70;;;;;;;6.27;82.89;100334.62;86379;1291;22652;-76
2022/11/13 03:58:10;;;;;;;109.40;53.20;;;;;;;6.28;82.67;100334.08;86282;1301;22526;-76
2022/11/13 04:00:15;;;;;;;108.30;52.50;;;;;;;6.27;82.94;100327.63;86438;1290;98566;-76
2022/11/13 04:02:17;;;;;;;109.50;53.80;;;;;;;6.27;82.85;100330.25;86373;1291;23964;-76
2022/11/13 04:04:19;;;;;;;117.10;53.90;;;;;;;6.28;82.69;100329.02;86446;1289;23025;-75
2022/11/13 04:06:20;;;;;;;117.80;54.40;;;;;;;6.26;82.85;100331.66;86214;1290;99753;-76
2022/11/13 04:08:22;;;;;;;107.70;49.80;;;;;;;6.24;82.68;100329.41;86364;1291;26492;-76
2022/11/13 04:10:25;;;;;;;99.20;49.80;;;;;;;6.22;82.59;100328.73;86057;1300;24264;-75
2022/11/13 04:12:26;;;;;;;108.40;52.50;;;;;;;6.20;82.69;100328.56;86179;1281;100145;-75
2022/11/13 04:14:28;;;;;;;123.20;53.90;;;;;;;6.21;82.86;100325.58;86072;1293;24145;-75
2022/11/13 04:16:30;;;;;;;106.80;50.30;;;;;;;6.22;82.90;100323.66;86180;1290;22512;-76
2022/11/13 04:18:31;;;;;;;99.10;51.00;;;;;;;6.23;82.81;100328.02;86192;1297;98779;-74
2022/11/13 04:20:33;;;;;;;117.70;56.00;;;;;;;6.23;82.87;100326.80;86189;1299;22517;-75
2022/11/13 04:22:35;;;;;;;105.80;53.00;;;;;;;6.24;83.11;100332.19;86276;1290;22477;-76
2022/11/13 04:24:37;;;;;;;109.60;52.60;;;;;;;6.24;83.00;100329.93;86094;1290;98641;-76
2022/11/13 04:26:40;;;;;;;106.60;51.00;;;;;;;6.23;82.80;100331.33;86277;1290;22488;-74
2022/11/13 04:28:41;;;;;;;110.50;49.90;;;;;;;6.20;82.70;100331.01;86164;1289;22559;-74
2022/11/13 04:30:43;;;;;;;114.40;51.80;;;;;;;6.18;82.85;100331.55;86044;1283;100076;-75
2022/11/13 04:32:45;;;;;;;106.40;51.90;;;;;;;6.03;82.79;100301.84;86358;1304;23100;-76
2022/11/13 04:34:47;;;;;;;109.50;50.60;;;;;;;6.20;82.97;100327.69;86362;1288;22770;-75
2022/11/13 04:36:49;;;;;;;105.90;50.40;;;;;;;6.21;82.95;100325.07;86189;1289;98914;-74
2022/11/13 04:38:51;;;;;;;110.10;50.60;;;;;;;6.21;82.95;100329.60;86088;1285;23468;-75
2022/11/13 04:42:47;;;;;;;117.60;53.10;;;;;;;6.23;82.85;100330.27;86404;1302;24237;-74
2022/11/13 04:43:14;;;;;;;110.40;50.10;;;;;;;6.16;82.87;100311.50;86358;1288;23257;-75
2022/11/13 04:45:22;;;;;;;119.20;50.70;;;;;;;6.23;82.99;100324.54;86246;1282;23766;-74
2022/11/13 04:47:24;;;;;;;115.30;51.90;;;;;;;6.20;82.79;100322.63;86197;1283;99790;-76
2022/11/13 04:49:26;;;;;;;111.30;49.60;;;;;;;6.18;83.05;100325.45;86228;1290;25300;-75
2022/11/13 04:51:28;;;;;;;119.30;52.60;;;;;;;6.17;82.77;100329.45;86153;1288;22470;-74
2022/11/13 04:53:29;;;;;;;113.70;53.40;;;;;;;6.18;83.00;100327.71;86057;1286;99398;-75
2022/11/13 04:55:31;;;;;;;108.90;50.90;;;;;;;6.19;82.96;100322.46;86119;1283;25237;-74
2022/11/13 04:57:33;;;;;;;110.10;51.20;;;;;;;6.20;83.08;100320.70;86329;1291;22504;-75
2022/11/13 04:59:34;;;;;;;110.60;51.60;;;;;;;6.21;83.18;100319.30;85826;1287;98813;-76
2022/11/13 05:01:36;;;;;;;110.20;53.30;;;;;;;6.21;82.93;100322.61;86025;1285;22517;-74
2022/11/13 05:03:39;;;;;;;106.70;47.90;;;;;;;6.20;82.85;100319.48;86130;1292;25346;-75
2022/11/13 05:05:40;;;;;;;100.50;48.90;;;;;;;6.19;83.06;100316.53;86134;1290;98591;-75
2022/11/13 05:07:42;;;;;;;106.50;52.10;;;;;;;6.19;82.96;100314.09;86142;1289;22532;-75
2022/11/13 05:09:44;;;;;;;105.00;51.60;;;;;;;6.19;83.08;100314.27;86177;1284;23858;-75
2022/11/13 05:11:46;;;;;;;112.30;53.90;;;;;;;6.19;82.94;100314.78;86162;1288;99742;-76
2022/11/13 05:13:47;;;;;;;117.60;52.70;;;;;;;6.20;83.06;100317.92;86165;1291;22554;-73
2022/11/13 05:15:49;;;;;;;106.90;51.80;;;;;;;6.19;83.36;100316.17;86262;1288;24037;-74
2022/11/13 05:17:53;;;;;;;110.10;49.50;;;;;;;6.17;83.02;100313.41;86061;1283;100314;-76
2022/11/13 05:19:55;;;;;;;113.90;52.40;;;;;;;6.11;82.97;100307.34;86020;1287;22612;-75
2022/11/13 05:21:56;;;;;;;118.10;52.60;;;;;;;6.12;83.09;100317.65;86159;1292;25673;-75
2022/11/13 05:23:58;;;;;;;116.80;51.80;;;;;;;6.11;83.01;100316.77;86121;1289;99721;-75
2022/11/13 05:26:02;;;;;;;120.10;54.90;;;;;;;6.08;83.01;100317.49;86187;1290;22494;-75
2022/11/13 05:28:04;;;;;;;116.20;53.60;;;;;;;6.06;82.96;100319.95;86503;1287;27404;-75
2022/11/13 05:30:07;;;;;;;127.10;59.30;;;;;;;6.03;83.03;100317.36;86072;1289;99236;-75
2022/11/13 05:32:08;;;;;;;134.80;57.10;;;;;;;6.02;83.03;100317.89;86674;1284;23291;-76
2022/11/13 05:34:10;;;;;;;118.70;52.70;;;;;;;6.01;83.18;100321.39;86246;1290;24301;-76
2022/11/13 05:36:15;;;;;;;115.80;52.10;;;;;;;5.99;83.02;100320.70;86160;1283;99402;-74
2022/11/13 05:38:17;;;;;;;136.60;59.50;;;;;;;5.97;83.11;100315.81;86773;1287;24477;-74
2022/11/13 05:40:18;;;;;;;126.10;57.20;;;;;;;5.98;83.10;100322.45;86372;1295;22862;-75
2022/11/13 05:42:20;;;;;;;117.50;53.50;;;;;;;5.99;83.19;100320.71;86690;1284;99865;-76
2022/11/13 05:44:22;;;;;;;132.20;55.90;;;;;;;5.99;83.31;100320.34;86292;1291;22957;-75
2022/11/13 05:46:26;;;;;;;121.60;55.00;;;;;;;5.99;83.25;100320.02;86341;1297;22514;-77
2022/11/13 05:48:28;;;;;;;122.70;55.00;;;;;;;5.98;83.28;100318.44;86548;1289;99892;-74
2022/11/13 05:50:30;;;;;;;115.90;53.80;;;;;;;5.97;83.15;100316.87;86121;1293;25528;-74
2022/11/13 05:52:31;;;;;;;127.40;52.70;;;;;;;5.95;83.39;100319.13;86353;1284;23753;-73
2022/11/13 05:54:33;;;;;;;127.60;55.00;;;;;;;5.94;83.08;100318.61;86112;1290;99366;-74
2022/11/13 05:56:35;;;;;;;119.40;53.20;;;;;;;5.92;83.23;100321.43;86129;1287;22587;-72
2022/11/13 05:58:38;;;;;;;126.20;53.80;;;;;;;5.91;83.27;100317.77;86039;1293;22528;-74
2022/11/13 06:00:39;;;;;;;116.20;52.80;;;;;;;5.93;83.15;100314.95;86361;1291;99223;-74
2022/11/13 06:02:41;;;;;;;115.40;50.70;;;;;;;5.97;83.54;100312.33;86207;1291;23180;-74
2022/11/13 06:04:43;;;;;;;107.20;50.00;;;;;;;5.97;83.31;100312.68;86413;1283;24388;-73
2022/11/13 06:06:44;;;;;;;114.20;51.90;;;;;;;5.94;83.29;100308.85;86094;1284;99911;-74
2022/11/13 06:08:47;;;;;;;122.90;56.30;;;;;;;5.94;83.51;100308.67;86036;1290;22518;-77
2022/11/13 06:10:49;;;;;;;113.60;51.00;;;;;;;5.95;83.45;100308.67;86047;1283;24284;-73
2022/11/13 06:12:51;;;;;;;119.30;54.30;;;;;;;5.96;83.50;100313.71;86083;1284;99772;-73
2022/11/13 06:14:52;;;;;;;124.10;54.80;;;;;;;5.95;83.39;100307.80;86014;1283;24293;-74
2022/11/13 06:16:54;;;;;;;112.90;51.70;;;;;;;5.94;83.37;100309.36;86315;1281;24407;-74
2022/11/13 06:18:58;;;;;;;102.10;49.50;;;;;;;5.93;83.37;100310.42;86163;1291;100207;-73
2022/11/13 06:21:02;;;;;;;111.50;49.00;;;;;;;5.91;83.36;100312.88;86266;1289;22703;-73
2022/11/13 06:23:04;;;;;;;107.60;49.60;;;;;;;5.87;83.13;100315.17;86175;1283;26792;-73
2022/11/13 06:25:06;;;;;;;113.00;52.60;;;;;;;5.84;83.07;100316.08;86250;1288;100041;-74
2022/11/13 06:27:07;;;;;;;112.50;49.30;;;;;;;5.81;83.23;100311.57;86263;1303;23866;-74
2022/11/13 06:29:11;;;;;;;112.10;51.90;;;;;;;5.81;83.47;100308.42;86231;1283;22533;-73
2022/11/13 06:31:14;;;;;;;111.90;50.30;;;;;;;5.82;83.45;100309.11;85996;1285;99537;-73
2022/11/13 06:33:16;;;;;;;96.20;45.40;;;;;;;5.79;83.43;100310.52;86269;1286;23376;-74
2022/11/13 06:35:17;;;;;;;107.10;50.10;;;;;;;5.75;83.37;100307.23;86124;1297;99778;-73
2022/11/13 06:37:19;;;;;;;100.40;49.10;;;;;;;5.73;83.38;100308.30;86095;1289;22929;-73
2022/11/13 06:39:21;;;;;;;110.70;52.00;;;;;;;5.74;83.53;100309.69;86227;1283;23897;-73
2022/11/13 06:41:28;;;;;;;108.50;50.00;;;;;;;5.75;83.58;100309.33;86173;1290;100328;-74
2022/11/13 06:43:30;;;;;;;105.40;50.90;;;;;;;5.78;83.45;100308.96;86105;1291;22745;-73
2022/11/13 06:45:32;;;;;;;110.30;51.60;;;;;;;5.80;83.49;100313.13;86113;1291;22538;-73
2022/11/13 06:47:34;;;;;;;103.00;46.50;;;;;;;5.78;83.44;100311.39;86259;1288;100293;-73
2022/11/13 06:49:36;;;;;;;101.10;49.40;;;;;;;5.77;83.42;100308.97;86287;1281;25124;-73
2022/11/13 06:51:38;;;;;;;92.40;46.90;;;;;;;5.76;83.24;100310.73;86015;1286;25434;-74
2022/11/13 06:53:40;;;;;;;103.10;49.40;;;;;;;5.72;83.37;100307.61;85977;1293;98448;-73
2022/11/13 06:55:48;;;;;;;97.80;47.00;;;;;;;5.70;83.51;100305.71;86226;1284;25429;-73
2022/11/13 06:57:49;;;;;;;90.50;45.60;;;;;;;5.69;83.46;100306.40;86266;1284;22836;-74
2022/11/13 06:59:51;;;;;;;91.70;45.30;;;;;;;5.66;83.56;100307.14;86111;1284;99576;-74
2022/11/13 07:01:53;;;;;;;98.10;48.20;;;;;;;5.62;83.44;100308.73;86081;1287;22560;-73
2022/11/13 07:03:55;;;;;;;85.70;40.90;;;;;;;5.58;83.47;100313.29;86205;1283;24243;-72
2022/11/13 07:06:03;;;;;;;91.80;48.00;;;;;;;5.52;83.44;100310.35;86081;1284;100250;-73
2022/11/13 07:08:05;;;;;;;99.40;48.30;;;;;;;5.51;83.57;100304.61;86078;1291;22496;-73
2022/11/13 07:10:07;;;;;;;92.00;47.10;;;;;;;5.53;83.75;100299.89;86282;1287;25362;-73
2022/11/13 07:12:09;;;;;;;90.10;46.80;;;;;;;5.56;83.69;100303.70;86064;1283;99192;-74
2022/11/13 07:14:11;;;;;;;105.00;45.90;;;;;;;5.59;83.85;100303.34;86221;1290;22645;-73
2022/11/13 07:16:15;;;;;;;92.60;48.20;;;;;;;5.61;83.65;100301.92;86184;1284;22629;-73
2022/11/13 07:18:16;;;;;;;96.50;46.00;;;;;;;5.61;83.74;100293.39;85900;1284;100175;-73
2022/11/13 07:20:18;;;;;;;95.00;45.80;;;;;;;5.61;83.61;100294.26;85955;1290;25284;-73
2022/11/13 07:22:20;;;;;;;100.60;46.90;;;;;;;5.62;83.70;100298.27;86015;1289;22502;-74
2022/11/13 07:24:22;;;;;;;104.20;48.00;;;;;;;5.63;83.70;100302.96;85985;1288;99784;-73
2022/11/13 07:26:23;;;;;;;99.20;46.10;;;;;;;5.65;83.75;100302.77;85938;1291;22535;-73
2022/11/13 07:28:25;;;;;;;95.70;47.70;;;;;;;5.65;83.71;100302.08;85956;1286;22488;-73
2022/11/13 07:30:27;;;;;;;103.20;48.90;;;;;;;5.66;83.79;100298.58;86079;1284;99596;-74
2022/11/13 07:32:28;;;;;;;102.10;50.40;;;;;;;5.67;83.91;100296.66;86254;1283;24288;-73
2022/11/13 07:34:30;;;;;;;103.00;50.60;;;;;;;5.70;83.88;100299.42;86058;1293;22453;-72
2022/11/13 07:36:32;;;;;;;95.40;48.00;;;;;;;5.72;83.88;100301.67;85989;1288;100255;-72
2022/11/13 07:38:33;;;;;;;96.30;46.90;;;;;;;5.74;83.79;100303.41;86139;1283;22548;-73
2022/11/13 07:40:35;;;;;;;105.40;50.90;;;;;;;5.76;83.89;100303.21;85970;1283;24376;-73
2022/11/13 07:42:38;;;;;;;91.20;46.20;;;;;;;5.79;83.77;100300.94;85751;1291;304796;-73
2022/11/13 07:44:40;;;;;;;96.00;45.00;;;;;;;5.81;83.65;100300.40;85879;1283;22595;-72
2022/11/13 07:46:41;;;;;;;94.40;44.10;;;;;;;5.81;83.74;100300.58;86019;1287;22580;-73
2022/11/13 07:48:43;;;;;;;79.00;42.80;;;;;;;5.79;83.59;100307.38;86203;1281;99606;-72
2022/11/13 07:50:45;;;;;;;91.60;46.30;;;;;;;5.78;83.80;100306.70;86327;1281;23578;-73
2022/11/13 07:52:46;;;;;;;95.80;48.20;;;;;;;5.77;83.74;100311.23;86213;1281;22970;-73
2022/11/13 07:54:48;;;;;;;98.80;50.40;;;;;;;5.78;83.71;100309.66;86061;1291;99606;-73
2022/11/13 07:56:51;;;;;;;102.50;45.80;;;;;;;5.82;83.91;100309.29;86206;1284;26443;-72
2022/11/13 07:58:53;;;;;;;101.50;48.80;;;;;;;5.85;83.64;100304.55;86247;1288;22779;-73
2022/11/13 08:01:01;;;;;;;94.20;47.00;;;;;;;5.87;84.02;100303.15;85907;1286;100157;-74
2022/11/13 08:03:09;;;;;;;87.90;46.60;;;;;;;5.89;83.93;100304.88;85993;1291;22500;-72
2022/11/13 08:05:10;;;;;;;101.70;48.80;;;;;;;5.89;83.69;100309.59;86335;1283;22689;-74
2022/11/13 08:07:13;;;;;;;100.70;50.60;;;;;;;5.91;83.65;100309.39;86232;1283;99330;-72
2022/11/13 08:09:15;;;;;;;106.20;50.40;;;;;;;5.93;83.65;100306.40;86005;1291;23355;-72
2022/11/13 08:11:17;;;;;;;116.00;50.50;;;;;;;5.92;83.73;100308.50;86322;1289;98726;-73
2022/11/13 08:13:18;;;;;;;109.70;52.40;;;;;;;5.93;83.97;100310.60;86378;1289;22660;-74
2022/11/13 08:15:20;;;;;;;109.50;49.20;;;;;;;5.92;83.93;100312.87;86292;1283;22504;-75
2022/11/13 08:17:22;;;;;;;107.80;50.20;;;;;;;5.92;83.85;100312.17;86018;1291;100032;-73
2022/11/13 08:19:23;;;;;;;104.20;46.60;;;;;;;5.93;83.96;100316.00;86573;1291;22737;-73
2022/11/13 08:21:26;;;;;;;93.80;43.90;;;;;;;5.91;83.81;100320.56;86307;1283;25627;-73
2022/11/13 08:23:29;;;;;;;101.30;46.30;;;;;;;5.81;83.53;100311.39;86375;1291;99802;-73
2022/11/13 08:25:32;;;;;;;98.00;45.40;;;;;;;5.82;83.74;100314.00;86455;1284;25545;-74
2022/11/13 08:27:34;;;;;;;104.00;48.80;;;;;;;5.83;83.86;100316.78;86274;1285;22517;-74
2022/11/13 08:29:37;;;;;;;94.00;47.00;;;;;;;5.85;83.84;100316.24;86075;1286;100289;-73
2022/11/13 08:31:38;;;;;;;109.20;50.00;;;;;;;5.90;83.97;100317.77;86266;1284;23386;-73
2022/11/13 08:33:40;;;;;;;101.70;49.40;;;;;;;5.92;84.06;100319.50;86264;1287;22531;-73
2022/11/13 08:35:51;;;;;;;106.40;51.10;;;;;;;5.94;83.98;100321.93;86421;1283;99217;-72
2022/11/13 08:37:53;;;;;;;119.30;52.70;;;;;;;5.99;84.06;100318.63;86415;1291;22469;-72
2022/11/13 08:39:54;;;;;;;109.90;49.80;;;;;;;6.02;83.98;100316.15;86051;1293;26502;-73
2022/11/13 08:41:56;;;;;;;111.30;49.90;;;;;;;6.04;84.03;100322.07;86343;1290;99221;-76
2022/11/13 08:43:58;;;;;;;104.90;47.80;;;;;;;6.06;83.95;100318.91;86319;1290;22630;-70
2022/11/13 08:46:00;;;;;;;86.20;39.70;;;;;;;6.07;83.81;100318.73;86322;1291;22501;-73
2022/11/13 08:48:03;;;;;;;80.90;43.40;;;;;;;6.07;83.93;100318.38;85992;1286;100264;-73
2022/11/13 08:50:06;;;;;;;85.50;40.50;;;;;;;6.07;83.86;100321.17;86189;1288;22482;-73
2022/11/13 08:52:08;;;;;;;72.20;39.10;;;;;;;6.07;83.75;100321.34;86007;1283;25577;-72
2022/11/13 08:54:10;;;;;;;79.20;40.40;;;;;;;6.07;83.75;100323.61;85897;1289;99551;-72
2022/11/13 08:56:12;;;;;;;89.80;41.00;;;;;;;6.07;83.67;100325.02;85953;1284;22547;-73
2022/11/13 08:58:14;;;;;;;89.80;43.60;;;;;;;6.08;83.82;100325.18;86182;1280;22485;-74
2022/11/13 09:00:16;;;;;;;83.80;41.80;;;;;;;6.09;83.74;100323.08;86066;1289;99575;-71
2022/11/13 09:02:18;;;;;;;117.50;43.20;;;;;;;6.08;83.77;100326.04;86300;1290;22474;-73
2022/11/13 09:04:19;;;;;;;86.00;43.40;;;;;;;6.04;83.78;100326.42;85918;1286;23099;-73
2022/11/13 09:06:21;;;;;;;96.00;47.40;;;;;;;6.02;83.75;100329.93;86076;1284;100510;-73
2022/11/13 09:08:23;;;;;;;91.60;46.70;;;;;;;6.02;83.83;100328.88;86066;1287;25295;-74
2022/11/13 09:10:25;;;;;;;96.30;49.40;;;;;;;6.04;83.87;100329.05;86177;1288;23294;-73
2022/11/13 09:12:27;;;;;;;97.70;50.90;;;;;;;6.08;83.86;100328.84;86019;1283;99887;-74
2022/11/13 09:14:29;;;;;;;103.00;51.30;;;;;;;6.09;83.84;100327.09;86174;1283;23090;-74
2022/11/13 09:16:31;;;;;;;101.90;50.10;;;;;;;6.10;83.80;100325.50;86099;1290;22530;-73
2022/11/13 09:18:32;;;;;;;100.30;47.90;;;;;;;6.10;83.94;100324.11;86235;1288;99726;-73